AAL1709 KCID-KORD
Flight info
| Callsign | AAL1709 |
|---|---|
| Flight time | 0h 50m |
| Altitude | 29000 |
| Route | BENNR FYTTE7 |
| Aircraft | A319/M-SDE3FGHIRWY/LB1 |
Departure
| Time | 2026-04-15 14:35 |
|---|---|
| Airport | The Eastern Iowa Airport (KCID) |
Arrival
| Time | 2026-04-15 15:25 |
|---|---|
| Airport | Chicago O'Hare International Airport (KORD) |
| Time | Latitude | Longitude | Altitude | Speed | Heading |
|---|---|---|---|---|---|
| 2026-04-15 14:06 | 41.88817 | -91.70178 | 873 ft | 0 kts | 104° |
| 2026-04-15 14:29 | 41.88818 | -91.70181 | 873 ft | 2 kts | 103° |
| 2026-04-15 14:29 | 41.88821 | -91.70203 | 873 ft | 2 kts | 104° |
| 2026-04-15 14:30 | 41.88826 | -91.70224 | 873 ft | 2 kts | 104° |
| 2026-04-15 14:30 | 41.88831 | -91.70245 | 873 ft | 2 kts | 149° |
| 2026-04-15 14:30 | 41.88844 | -91.70242 | 873 ft | 2 kts | 225° |
| 2026-04-15 14:30 | 41.88854 | -91.70229 | 873 ft | 1 kts | 224° |
| 2026-04-15 14:31 | 41.88852 | -91.70231 | 873 ft | 2 kts | 224° |
| 2026-04-15 14:31 | 41.88835 | -91.70253 | 873 ft | 4 kts | 224° |
| 2026-04-15 14:31 | 41.88785 | -91.70318 | 873 ft | 13 kts | 224° |
| 2026-04-15 14:31 | 41.88717 | -91.70410 | 872 ft | 15 kts | 241° |
| 2026-04-15 14:32 | 41.88691 | -91.70538 | 872 ft | 9 kts | 207° |
| 2026-04-15 14:32 | 41.88636 | -91.70538 | 871 ft | 9 kts | 187° |
| 2026-04-15 14:32 | 41.88577 | -91.70498 | 872 ft | 11 kts | 110° |
| 2026-04-15 14:32 | 41.88573 | -91.70389 | 872 ft | 13 kts | 90° |
| 2026-04-15 14:33 | 41.88573 | -91.70260 | 873 ft | 15 kts | 91° |
| 2026-04-15 14:33 | 41.88545 | -91.70156 | 874 ft | 4 kts | 167° |
| 2026-04-15 14:33 | 41.88510 | -91.70152 | 874 ft | 1 kts | 180° |
| 2026-04-15 14:33 | 41.88508 | -91.70152 | 874 ft | 1 kts | 180° |
| 2026-04-15 14:34 | 41.88492 | -91.70152 | 875 ft | 4 kts | 180° |
| 2026-04-15 14:34 | 41.88458 | -91.70160 | 875 ft | 6 kts | 202° |
| 2026-04-15 14:34 | 41.88434 | -91.70217 | 874 ft | 9 kts | 262° |
| 2026-04-15 14:34 | 41.88435 | -91.70266 | 874 ft | 2 kts | 270° |
| 2026-04-15 14:35 | 41.88438 | -91.70638 | 873 ft | 99 kts | 271° |
| 2026-04-15 14:35 | 41.88453 | -91.72054 | 961 ft | 190 kts | 269° |
| 2026-04-15 14:35 | 41.88501 | -91.73803 | 1533 ft | 168 kts | 269° |
| 2026-04-15 14:35 | 41.88592 | -91.75399 | 2056 ft | 181 kts | 270° |
| 2026-04-15 14:36 | 41.88766 | -91.77153 | 2605 ft | 210 kts | 286° |
| 2026-04-15 14:36 | 41.89735 | -91.78761 | 3200 ft | 237 kts | 324° |
| 2026-04-15 14:36 | 41.91361 | -91.79251 | 3774 ft | 249 kts | 4° |
| 2026-04-15 14:36 | 41.92930 | -91.78283 | 4340 ft | 255 kts | 40° |
| 2026-04-15 14:37 | 41.94167 | -91.76564 | 4920 ft | 256 kts | 49° |
| 2026-04-15 14:37 | 41.95301 | -91.74709 | 5486 ft | 259 kts | 51° |
| 2026-04-15 14:37 | 41.96420 | -91.72800 | 6059 ft | 262 kts | 51° |
| 2026-04-15 14:37 | 41.97563 | -91.70863 | 6636 ft | 266 kts | 50° |
| 2026-04-15 14:38 | 41.98725 | -91.68932 | 7187 ft | 265 kts | 50° |
| 2026-04-15 14:38 | 41.99901 | -91.67012 | 7743 ft | 268 kts | 49° |
| 2026-04-15 14:38 | 42.01165 | -91.64977 | 8340 ft | 301 kts | 48° |
| 2026-04-15 14:38 | 42.02542 | -91.62783 | 8915 ft | 309 kts | 48° |
| 2026-04-15 14:39 | 42.03939 | -91.60559 | 9503 ft | 313 kts | 47° |
| 2026-04-15 14:39 | 42.05340 | -91.58328 | 10059 ft | 318 kts | 47° |
| 2026-04-15 14:39 | 42.06777 | -91.56042 | 10609 ft | 322 kts | 47° |
| 2026-04-15 14:39 | 42.08232 | -91.53726 | 11166 ft | 327 kts | 47° |
| 2026-04-15 14:40 | 42.09712 | -91.51369 | 11720 ft | 332 kts | 48° |
| 2026-04-15 14:40 | 42.11216 | -91.48972 | 12297 ft | 338 kts | 48° |
| 2026-04-15 14:40 | 42.12754 | -91.46518 | 12893 ft | 352 kts | 48° |
| 2026-04-15 14:40 | 42.14394 | -91.43905 | 13501 ft | 377 kts | 48° |
| 2026-04-15 14:41 | 42.16135 | -91.41126 | 14056 ft | 398 kts | 49° |
| 2026-04-15 14:41 | 42.17952 | -91.38215 | 14604 ft | 414 kts | 49° |
| 2026-04-15 14:41 | 42.19798 | -91.35251 | 15188 ft | 421 kts | 48° |
| 2026-04-15 14:41 | 42.21686 | -91.32215 | 15759 ft | 423 kts | 49° |
| 2026-04-15 14:42 | 42.23589 | -91.29156 | 16340 ft | 428 kts | 49° |
| 2026-04-15 14:42 | 42.25515 | -91.26058 | 16929 ft | 433 kts | 49° |
| 2026-04-15 14:42 | 42.27460 | -91.22928 | 17529 ft | 439 kts | 49° |
| 2026-04-15 14:42 | 42.29444 | -91.19734 | 18132 ft | 449 kts | 49° |
| 2026-04-15 14:43 | 42.31477 | -91.16457 | 18675 ft | 461 kts | 49° |
| 2026-04-15 14:43 | 42.33554 | -91.13095 | 19201 ft | 471 kts | 49° |
| 2026-04-15 14:43 | 42.35673 | -91.09665 | 19741 ft | 479 kts | 49° |
| 2026-04-15 14:43 | 42.37799 | -91.06223 | 20308 ft | 486 kts | 49° |
| 2026-04-15 14:44 | 42.39976 | -91.02698 | 20861 ft | 491 kts | 49° |
| 2026-04-15 14:44 | 42.42178 | -90.99127 | 21459 ft | 496 kts | 49° |
| 2026-04-15 14:44 | 42.44397 | -90.95524 | 22052 ft | 499 kts | 49° |
| 2026-04-15 14:44 | 42.46626 | -90.91905 | 22659 ft | 502 kts | 49° |
| 2026-04-15 14:45 | 42.48869 | -90.88259 | 23286 ft | 505 kts | 50° |
| 2026-04-15 14:45 | 42.51099 | -90.84568 | 23816 ft | 508 kts | 52° |
| 2026-04-15 14:45 | 42.52809 | -90.80390 | 24338 ft | 509 kts | 70° |
| 2026-04-15 14:45 | 42.53693 | -90.75763 | 24861 ft | 506 kts | 86° |
| 2026-04-15 14:46 | 42.53819 | -90.71028 | 25409 ft | 502 kts | 97° |
| 2026-04-15 14:46 | 42.53481 | -90.66306 | 25722 ft | 506 kts | 103° |
| 2026-04-15 14:46 | 42.52976 | -90.61606 | 25817 ft | 517 kts | 104° |
| 2026-04-15 14:46 | 42.52505 | -90.56713 | 25823 ft | 529 kts | 101° |
| 2026-04-15 14:47 | 42.52200 | -90.51712 | 25835 ft | 535 kts | 97° |
| 2026-04-15 14:47 | 42.52090 | -90.46654 | 25846 ft | 538 kts | 95° |
| 2026-04-15 14:47 | 42.52118 | -90.41584 | 25839 ft | 539 kts | 93° |
| 2026-04-15 14:47 | 42.52204 | -90.36498 | 25825 ft | 540 kts | 93° |
| 2026-04-15 14:48 | 42.52282 | -90.31401 | 25842 ft | 541 kts | 93° |
| 2026-04-15 14:48 | 42.52320 | -90.26304 | 25837 ft | 541 kts | 94° |
| 2026-04-15 14:48 | 42.52310 | -90.21199 | 25834 ft | 541 kts | 95° |
| 2026-04-15 14:48 | 42.52263 | -90.16105 | 25829 ft | 541 kts | 95° |
| 2026-04-15 14:49 | 42.52196 | -90.11005 | 25830 ft | 540 kts | 96° |
| 2026-04-15 14:49 | 42.52125 | -90.05987 | 25827 ft | 540 kts | 96° |
| 2026-04-15 14:49 | 42.52059 | -90.00899 | 25823 ft | 540 kts | 95° |
| 2026-04-15 14:49 | 42.52005 | -89.95798 | 25835 ft | 542 kts | 95° |
| 2026-04-15 14:50 | 42.51956 | -89.90675 | 25842 ft | 544 kts | 95° |
| 2026-04-15 14:50 | 42.51915 | -89.85553 | 25843 ft | 545 kts | 95° |
| 2026-04-15 14:50 | 42.51870 | -89.80411 | 25843 ft | 544 kts | 96° |
| 2026-04-15 14:50 | 42.51697 | -89.75312 | 25846 ft | 542 kts | 99° |
| 2026-04-15 14:51 | 42.51302 | -89.70245 | 25844 ft | 539 kts | 103° |
| 2026-04-15 14:51 | 42.50709 | -89.65252 | 25846 ft | 536 kts | 106° |
| 2026-04-15 14:51 | 42.49991 | -89.60290 | 25847 ft | 535 kts | 108° |
| 2026-04-15 14:51 | 42.49246 | -89.55425 | 25846 ft | 535 kts | 108° |
| 2026-04-15 14:52 | 42.48507 | -89.50425 | 25847 ft | 535 kts | 107° |
| 2026-04-15 14:52 | 42.47835 | -89.45521 | 25848 ft | 536 kts | 106° |
| 2026-04-15 14:52 | 42.47204 | -89.40548 | 25848 ft | 537 kts | 105° |
| 2026-04-15 14:52 | 42.46610 | -89.35545 | 25851 ft | 538 kts | 104° |
| 2026-04-15 14:53 | 42.46033 | -89.30533 | 25773 ft | 538 kts | 104° |
| 2026-04-15 14:53 | 42.45457 | -89.25542 | 25511 ft | 535 kts | 104° |
| 2026-04-15 14:53 | 42.44871 | -89.20594 | 25233 ft | 525 kts | 105° |
| 2026-04-15 14:53 | 42.44296 | -89.15831 | 24978 ft | 500 kts | 105° |
| 2026-04-15 14:54 | 42.43735 | -89.11274 | 24723 ft | 480 kts | 106° |
| 2026-04-15 14:54 | 42.43183 | -89.06911 | 24478 ft | 462 kts | 107° |
| 2026-04-15 14:54 | 42.42638 | -89.02695 | 24211 ft | 450 kts | 107° |
| 2026-04-15 14:54 | 42.42106 | -88.98604 | 23954 ft | 446 kts | 107° |
| 2026-04-15 14:55 | 42.41570 | -88.94485 | 23710 ft | 443 kts | 107° |
| 2026-04-15 14:55 | 42.41040 | -88.90382 | 23466 ft | 442 kts | 107° |
| 2026-04-15 14:55 | 42.40517 | -88.86293 | 23182 ft | 440 kts | 106° |
| 2026-04-15 14:55 | 42.39995 | -88.82229 | 22848 ft | 437 kts | 105° |
| 2026-04-15 14:56 | 42.39480 | -88.78202 | 22561 ft | 433 kts | 105° |
| 2026-04-15 14:56 | 42.38967 | -88.74199 | 22275 ft | 430 kts | 105° |
| 2026-04-15 14:56 | 42.38457 | -88.70230 | 21993 ft | 427 kts | 105° |
| 2026-04-15 14:56 | 42.37946 | -88.66290 | 21713 ft | 425 kts | 105° |
| 2026-04-15 14:57 | 42.37432 | -88.62356 | 21428 ft | 423 kts | 105° |
| 2026-04-15 14:57 | 42.36922 | -88.58470 | 21151 ft | 420 kts | 105° |
| 2026-04-15 14:57 | 42.36416 | -88.54630 | 20881 ft | 418 kts | 105° |
| 2026-04-15 14:57 | 42.35908 | -88.50779 | 20609 ft | 416 kts | 105° |
| 2026-04-15 14:58 | 42.35403 | -88.46932 | 20320 ft | 414 kts | 105° |
| 2026-04-15 14:58 | 42.34902 | -88.43112 | 20055 ft | 411 kts | 105° |
| 2026-04-15 14:58 | 42.34215 | -88.39425 | 19743 ft | 399 kts | 120° |
| 2026-04-15 14:58 | 42.32923 | -88.36157 | 19414 ft | 389 kts | 129° |
| 2026-04-15 14:59 | 42.31433 | -88.33145 | 19085 ft | 383 kts | 133° |
| 2026-04-15 14:59 | 42.29827 | -88.30301 | 18752 ft | 378 kts | 137° |
| 2026-04-15 14:59 | 42.28120 | -88.27637 | 18430 ft | 373 kts | 140° |
| 2026-04-15 14:59 | 42.26374 | -88.25060 | 18109 ft | 370 kts | 140° |
| 2026-04-15 15:00 | 42.24641 | -88.22512 | 17740 ft | 369 kts | 140° |
| 2026-04-15 15:00 | 42.22923 | -88.19940 | 17376 ft | 368 kts | 139° |
| 2026-04-15 15:00 | 42.21258 | -88.17387 | 17017 ft | 367 kts | 138° |
| 2026-04-15 15:00 | 42.19461 | -88.14957 | 16641 ft | 353 kts | 153° |
| 2026-04-15 15:01 | 42.17307 | -88.13549 | 16290 ft | 340 kts | 166° |
| 2026-04-15 15:01 | 42.15126 | -88.12424 | 15954 ft | 340 kts | 167° |
| 2026-04-15 15:01 | 42.12917 | -88.11301 | 15609 ft | 339 kts | 167° |
| 2026-04-15 15:01 | 42.10710 | -88.10185 | 15267 ft | 338 kts | 167° |
| 2026-04-15 15:02 | 42.08516 | -88.09076 | 14926 ft | 337 kts | 166° |
| 2026-04-15 15:02 | 42.06597 | -88.08100 | 14628 ft | 334 kts | 166° |
| 2026-04-15 15:02 | 42.04432 | -88.06992 | 14293 ft | 331 kts | 166° |
| 2026-04-15 15:02 | 42.02290 | -88.05892 | 13967 ft | 329 kts | 166° |
| 2026-04-15 15:03 | 42.00160 | -88.04803 | 13644 ft | 328 kts | 166° |
| 2026-04-15 15:03 | 41.98027 | -88.03714 | 13276 ft | 326 kts | 166° |
| 2026-04-15 15:03 | 41.95908 | -88.02636 | 12904 ft | 323 kts | 166° |
| 2026-04-15 15:03 | 41.93821 | -88.01575 | 12547 ft | 320 kts | 166° |
| 2026-04-15 15:04 | 41.91743 | -88.00519 | 12192 ft | 318 kts | 166° |
| 2026-04-15 15:04 | 41.89740 | -87.99229 | 11833 ft | 328 kts | 150° |
| 2026-04-15 15:04 | 41.88275 | -87.96813 | 11484 ft | 344 kts | 120° |
| 2026-04-15 15:04 | 41.87667 | -87.93684 | 11144 ft | 352 kts | 99° |
| 2026-04-15 15:05 | 41.87637 | -87.90444 | 10809 ft | 353 kts | 89° |
| 2026-04-15 15:05 | 41.87860 | -87.87169 | 10471 ft | 352 kts | 85° |
| 2026-04-15 15:05 | 41.88125 | -87.83910 | 10140 ft | 350 kts | 85° |
| 2026-04-15 15:05 | 41.88329 | -87.80670 | 9829 ft | 347 kts | 88° |
| 2026-04-15 15:06 | 41.88490 | -87.74265 | 9112 ft | 341 kts | 91° |
| 2026-04-15 15:06 | 41.88490 | -87.71092 | 8866 ft | 339 kts | 92° |
| 2026-04-15 15:06 | 41.88471 | -87.67937 | 8871 ft | 338 kts | 92° |
| 2026-04-15 15:07 | 41.88446 | -87.64778 | 8875 ft | 339 kts | 92° |
| 2026-04-15 15:07 | 41.88423 | -87.61622 | 8799 ft | 335 kts | 92° |
| 2026-04-15 15:07 | 41.88407 | -87.58576 | 8669 ft | 320 kts | 92° |
| 2026-04-15 15:07 | 41.88396 | -87.55652 | 8545 ft | 316 kts | 92° |
| 2026-04-15 15:08 | 41.88383 | -87.52720 | 8419 ft | 314 kts | 92° |
| 2026-04-15 15:08 | 41.88373 | -87.49788 | 8295 ft | 313 kts | 92° |
| 2026-04-15 15:08 | 41.88378 | -87.46872 | 8166 ft | 312 kts | 91° |
| 2026-04-15 15:08 | 41.88420 | -87.43963 | 8046 ft | 312 kts | 90° |
| 2026-04-15 15:09 | 41.88498 | -87.41056 | 7939 ft | 311 kts | 89° |
| 2026-04-15 15:09 | 41.88610 | -87.38165 | 7851 ft | 311 kts | 88° |
| 2026-04-15 15:09 | 41.88708 | -87.35271 | 7659 ft | 310 kts | 90° |
| 2026-04-15 15:09 | 41.88744 | -87.32389 | 7403 ft | 308 kts | 91° |
| 2026-04-15 15:10 | 41.88761 | -87.29566 | 7164 ft | 306 kts | 91° |
| 2026-04-15 15:10 | 41.88780 | -87.26722 | 6923 ft | 304 kts | 91° |
| 2026-04-15 15:10 | 41.88803 | -87.23890 | 6692 ft | 303 kts | 91° |
| 2026-04-15 15:10 | 41.88835 | -87.21071 | 6454 ft | 302 kts | 91° |
| 2026-04-15 15:11 | 41.88872 | -87.18256 | 6220 ft | 301 kts | 90° |
| 2026-04-15 15:11 | 41.88910 | -87.15459 | 5970 ft | 299 kts | 90° |
| 2026-04-15 15:11 | 41.88948 | -87.12691 | 5723 ft | 296 kts | 90° |
| 2026-04-15 15:11 | 41.88988 | -87.09933 | 5482 ft | 295 kts | 90° |
| 2026-04-15 15:12 | 41.89036 | -87.07191 | 5236 ft | 293 kts | 89° |
| 2026-04-15 15:12 | 41.89503 | -87.04541 | 4987 ft | 293 kts | 65° |
| 2026-04-15 15:12 | 41.90424 | -87.02155 | 4755 ft | 291 kts | 62° |
| 2026-04-15 15:12 | 41.91371 | -86.99762 | 4506 ft | 290 kts | 62° |
| 2026-04-15 15:13 | 41.92316 | -86.97382 | 4257 ft | 288 kts | 62° |
| 2026-04-15 15:13 | 41.93268 | -86.95029 | 4011 ft | 286 kts | 58° |
| 2026-04-15 15:13 | 41.94673 | -86.93222 | 3910 ft | 280 kts | 24° |
| 2026-04-15 15:13 | 41.96544 | -86.92794 | 3905 ft | 273 kts | 348° |
| 2026-04-15 15:14 | 41.98206 | -86.93846 | 3902 ft | 263 kts | 312° |
| 2026-04-15 15:14 | 41.98881 | -86.95154 | 3910 ft | 257 kts | 289° |
| 2026-04-15 15:14 | 41.98996 | -86.97472 | 3900 ft | 250 kts | 252° |
| 2026-04-15 15:14 | 41.98054 | -86.99393 | 3900 ft | 251 kts | 223° |
| 2026-04-15 15:15 | 41.96428 | -87.01586 | 3894 ft | 251 kts | 236° |
| 2026-04-15 15:15 | 41.95897 | -87.03792 | 3907 ft | 254 kts | 266° |
| 2026-04-15 15:15 | 41.96066 | -87.06164 | 3903 ft | 255 kts | 275° |
| 2026-04-15 15:15 | 41.96319 | -87.08516 | 3900 ft | 254 kts | 276° |
| 2026-04-15 15:16 | 41.96581 | -87.10866 | 3890 ft | 255 kts | 276° |
| 2026-04-15 15:16 | 41.96755 | -87.12430 | 3889 ft | 255 kts | 276° |
| 2026-04-15 15:16 | 41.97016 | -87.14787 | 3887 ft | 255 kts | 276° |
| 2026-04-15 15:16 | 41.97275 | -87.17143 | 3887 ft | 255 kts | 276° |
| 2026-04-15 15:17 | 41.97615 | -87.20259 | 3887 ft | 254 kts | 275° |
| 2026-04-15 15:17 | 41.97869 | -87.22604 | 3887 ft | 254 kts | 275° |
| 2026-04-15 15:17 | 41.98118 | -87.24946 | 3873 ft | 253 kts | 270° |
| 2026-04-15 15:17 | 41.98316 | -87.27303 | 3842 ft | 254 kts | 273° |
| 2026-04-15 15:18 | 41.98459 | -87.28895 | 3858 ft | 254 kts | 275° |
| 2026-04-15 15:18 | 41.98621 | -87.31220 | 3878 ft | 252 kts | 269° |
| 2026-04-15 15:18 | 41.98665 | -87.33571 | 3892 ft | 252 kts | 268° |
| 2026-04-15 15:18 | 41.98693 | -87.35921 | 3884 ft | 251 kts | 268° |
| 2026-04-15 15:19 | 41.98711 | -87.38273 | 3884 ft | 252 kts | 268° |
| 2026-04-15 15:19 | 41.98724 | -87.40624 | 3872 ft | 252 kts | 268° |
| 2026-04-15 15:19 | 41.98736 | -87.42981 | 3873 ft | 252 kts | 268° |
| 2026-04-15 15:19 | 41.98746 | -87.45332 | 3870 ft | 252 kts | 267° |
| 2026-04-15 15:20 | 41.98755 | -87.47682 | 3873 ft | 252 kts | 267° |
| 2026-04-15 15:20 | 41.98764 | -87.50027 | 3872 ft | 250 kts | 267° |
| 2026-04-15 15:20 | 41.98772 | -87.52336 | 3874 ft | 251 kts | 267° |
| 2026-04-15 15:20 | 41.98779 | -87.54688 | 3874 ft | 252 kts | 267° |
| 2026-04-15 15:21 | 41.98785 | -87.57039 | 3869 ft | 252 kts | 267° |
| 2026-04-15 15:21 | 41.98792 | -87.59390 | 3863 ft | 251 kts | 267° |
| 2026-04-15 15:21 | 41.98798 | -87.61743 | 3859 ft | 253 kts | 267° |
| 2026-04-15 15:21 | 41.98803 | -87.64102 | 3864 ft | 252 kts | 268° |
| 2026-04-15 15:22 | 41.98808 | -87.66460 | 3861 ft | 252 kts | 267° |
| 2026-04-15 15:22 | 41.98813 | -87.68811 | 3861 ft | 252 kts | 267° |
| 2026-04-15 15:22 | 41.98815 | -87.71134 | 3715 ft | 243 kts | 267° |
| 2026-04-15 15:22 | 41.98814 | -87.73397 | 3221 ft | 238 kts | 266° |
| 2026-04-15 15:23 | 41.98809 | -87.75537 | 2904 ft | 218 kts | 265° |
| 2026-04-15 15:23 | 41.98805 | -87.77444 | 2628 ft | 199 kts | 265° |
| 2026-04-15 15:23 | 41.98794 | -87.79269 | 2478 ft | 193 kts | 265° |
| 2026-04-15 15:23 | 41.98773 | -87.81068 | 2493 ft | 192 kts | 265° |
| 2026-04-15 15:24 | 41.98742 | -87.82830 | 2439 ft | 191 kts | 264° |
| 2026-04-15 15:24 | 41.98700 | -87.84576 | 2043 ft | 180 kts | 262° |
| 2026-04-15 15:24 | 41.98691 | -87.86217 | 1635 ft | 172 kts | 267° |
| 2026-04-15 15:24 | 41.98842 | -87.87803 | 1161 ft | 171 kts | 270° |
| 2026-04-15 15:25 | 41.98827 | -87.89391 | 768 ft | 167 kts | 270° |
| 2026-04-15 15:25 | 41.98823 | -87.90818 | 670 ft | 127 kts | 269° |
| 2026-04-15 15:25 | 41.98828 | -87.91746 | 668 ft | 76 kts | 270° |
| 2026-04-15 15:25 | 41.98826 | -87.92260 | 671 ft | 37 kts | 269° |
| 2026-04-15 15:26 | 41.98785 | -87.92405 | 671 ft | 0 kts | 178° |
| 2026-04-15 15:26 | 41.98779 | -87.92404 | 671 ft | 3 kts | 178° |
| 2026-04-15 15:26 | 41.98717 | -87.92404 | 669 ft | 14 kts | 185° |
| 2026-04-15 15:27 | 41.98595 | -87.92410 | 669 ft | 18 kts | 181° |
| 2026-04-15 15:27 | 41.98478 | -87.92408 | 668 ft | 16 kts | 176° |
| 2026-04-15 15:27 | 41.98367 | -87.92407 | 667 ft | 15 kts | 179° |
| 2026-04-15 15:27 | 41.98271 | -87.92408 | 669 ft | 13 kts | 181° |
| 2026-04-15 15:28 | 41.98194 | -87.92392 | 669 ft | 9 kts | 137° |
| 2026-04-15 15:28 | 41.98186 | -87.92316 | 669 ft | 8 kts | 91° |
| 2026-04-15 15:28 | 41.98180 | -87.92237 | 669 ft | 8 kts | 97° |
| 2026-04-15 15:28 | 41.98172 | -87.92142 | 669 ft | 14 kts | 97° |
| 2026-04-15 15:29 | 41.98166 | -87.91993 | 669 ft | 16 kts | 91° |
| 2026-04-15 15:29 | 41.98164 | -87.91852 | 669 ft | 15 kts | 89° |
| 2026-04-15 15:29 | 41.98165 | -87.91719 | 669 ft | 14 kts | 89° |
| 2026-04-15 15:29 | 41.98165 | -87.91592 | 669 ft | 13 kts | 90° |
| 2026-04-15 15:30 | 41.98165 | -87.91472 | 670 ft | 12 kts | 88° |
| 2026-04-15 15:30 | 41.98165 | -87.91366 | 671 ft | 11 kts | 99° |
| 2026-04-15 15:30 | 41.98130 | -87.91270 | 669 ft | 12 kts | 123° |
| 2026-04-15 15:30 | 41.98095 | -87.91175 | 669 ft | 11 kts | 93° |
| 2026-04-15 15:31 | 41.98138 | -87.91109 | 669 ft | 10 kts | 39° |
| 2026-04-15 15:31 | 41.98181 | -87.91040 | 669 ft | 10 kts | 59° |
| 2026-04-15 15:31 | 41.98215 | -87.90960 | 668 ft | 10 kts | 66° |
| 2026-04-15 15:31 | 41.98220 | -87.90922 | 669 ft | 0 kts | 87° |
| 2026-04-15 15:33 | 41.98221 | -87.90920 | 669 ft | 1 kts | 87° |
| 2026-04-15 15:34 | 41.98220 | -87.90901 | 669 ft | 3 kts | 95° |
| 2026-04-15 15:34 | 41.98206 | -87.90864 | 667 ft | 6 kts | 147° |
| 2026-04-15 15:34 | 41.98154 | -87.90855 | 669 ft | 9 kts | 174° |
| 2026-04-15 15:34 | 41.98077 | -87.90851 | 669 ft | 12 kts | 189° |
| 2026-04-15 15:35 | 41.98061 | -87.90910 | 669 ft | 2 kts | 282° |
| 2026-04-15 15:35 | 41.98062 | -87.90927 | 669 ft | 0 kts | 277° |